Archival Weather

Heathrow

London, United Kingdom (EGLL)

Report from: Thursday, September 21, 2023 7:50 AM BST
Current time: Saturday, March 2, 2024 9:35 AM GMT

Current weather – Weather history – Daily summaries
Weather forecast

Temperature10.0°C (50.0°F)
Wind chill9.1°C (48.5°F)
Dew point10.0°C (50.0°F)
Winds 4 kts (2.1 m/s, 4.6 mph) Vrb
Winds variableWinds variable from South-Southeast (150°) to West (260°)
Visibility6.2 mi. (10 km)
Clouds Sky clear
Altimeter29.41 in.Hg (996 mB)
Relative humidity100 %
Density altitude165 ft. (50 m)
Remarks Fully automated report
Corrected report
No clouds detected
No significant changes expected in the next two hours
Flight conditions Visual Meteorological Conditions
Raw dataCOR EGLL 210650Z AUTO 21004KT 150V260 9999 NCD 10/10 Q0996 NOSIG
An error has occurred. This application may no longer respond until reloaded. Reload 🗙